CPA135 VHHH-YMML
Flight info
| Callsign | CPA135 |
|---|---|
| Flight time | N/A |
| Altitude | 33000 |
| Route | DALOL V642 NOMAN A461 AVMUP W16 TATIL/N0492F350 W16 MIA DCT LIGPA B472 COT R590 BUTPA A461 ADKUL DCT 1053S13024E/N0486F370 1530S13159E 1708S13232E DCT KIKAN DCT 2403S13521E 2730S13720E 2918S13834E 3229S14102E DCT NATYA H119 ARBEY |
| Aircraft | B77W/H-SDE1E2E3FGHIJ2J3J4J5M1RWXY/LB1D1 |
Departure
| Time | 2026-05-04 10:51 |
|---|---|
| Airport | Hong Kong International Airport (VHHH) |
Arrival
| Time | N/A |
|---|---|
| Airport | Melbourne Airport (YMML) |
| Time | Latitude | Longitude | Altitude | Speed | Heading |
|---|---|---|---|---|---|
| 2026-05-04 09:51 | 22.31277 | 113.92906 | 42 ft | 0 kts | 341° |
| 2026-05-04 10:36 | 22.31271 | 113.92909 | 42 ft | 2 kts | 341° |
| 2026-05-04 10:36 | 22.31257 | 113.92914 | 42 ft | 2 kts | 341° |
| 2026-05-04 10:36 | 22.31243 | 113.92918 | 42 ft | 2 kts | 341° |
| 2026-05-04 10:37 | 22.31229 | 113.92924 | 42 ft | 2 kts | 341° |
| 2026-05-04 10:37 | 22.31215 | 113.92930 | 42 ft | 2 kts | 322° |
| 2026-05-04 10:37 | 22.31205 | 113.92941 | 42 ft | 2 kts | 298° |
| 2026-05-04 10:37 | 22.31199 | 113.92956 | 42 ft | 2 kts | 277° |
| 2026-05-04 10:39 | 22.31209 | 113.92999 | 42 ft | 0 kts | 249° |
| 2026-05-04 10:41 | 22.31200 | 113.92972 | 42 ft | 8 kts | 249° |
| 2026-05-04 10:41 | 22.31161 | 113.92895 | 42 ft | 14 kts | 224° |
| 2026-05-04 10:41 | 22.31058 | 113.92831 | 42 ft | 18 kts | 206° |
| 2026-05-04 10:41 | 22.30950 | 113.92774 | 42 ft | 16 kts | 206° |
| 2026-05-04 10:42 | 22.30858 | 113.92718 | 42 ft | 14 kts | 223° |
| 2026-05-04 10:42 | 22.30812 | 113.92635 | 42 ft | 12 kts | 249° |
| 2026-05-04 10:42 | 22.30784 | 113.92551 | 42 ft | 13 kts | 251° |
| 2026-05-04 10:42 | 22.30749 | 113.92438 | 42 ft | 18 kts | 252° |
| 2026-05-04 10:43 | 22.30708 | 113.92302 | 42 ft | 17 kts | 251° |
| 2026-05-04 10:44 | 22.30426 | 113.91428 | 42 ft | 25 kts | 251° |
| 2026-05-04 10:45 | 22.30370 | 113.91241 | 42 ft | 26 kts | 251° |
| 2026-05-04 10:45 | 22.30310 | 113.91059 | 42 ft | 25 kts | 251° |
| 2026-05-04 10:45 | 22.30250 | 113.90877 | 42 ft | 26 kts | 250° |
| 2026-05-04 10:45 | 22.30192 | 113.90699 | 42 ft | 23 kts | 251° |
| 2026-05-04 10:46 | 22.30141 | 113.90538 | 42 ft | 21 kts | 251° |
| 2026-05-04 10:46 | 22.30095 | 113.90396 | 42 ft | 18 kts | 250° |
| 2026-05-04 10:46 | 22.30054 | 113.90273 | 42 ft | 16 kts | 251° |
| 2026-05-04 10:46 | 22.30019 | 113.90165 | 42 ft | 14 kts | 251° |
| 2026-05-04 10:47 | 22.29989 | 113.90070 | 42 ft | 12 kts | 251° |
| 2026-05-04 10:47 | 22.29959 | 113.89977 | 42 ft | 13 kts | 251° |
| 2026-05-04 10:47 | 22.29927 | 113.89874 | 42 ft | 15 kts | 251° |
| 2026-05-04 10:47 | 22.29886 | 113.89765 | 42 ft | 15 kts | 236° |
| 2026-05-04 10:49 | 22.29723 | 113.90107 | 42 ft | 69 kts | 70° |
| 2026-05-04 10:49 | 22.29952 | 113.90837 | 42 ft | 133 kts | 70° |
| 2026-05-04 10:50 | 22.30313 | 113.91963 | 89 ft | 181 kts | 71° |
| 2026-05-04 10:51 | 22.33637 | 114.02319 | 3484 ft | 256 kts | 75° |
| 2026-05-04 10:52 | 22.33886 | 114.04250 | 4059 ft | 263 kts | 95° |
| 2026-05-04 10:52 | 22.33388 | 114.06137 | 4607 ft | 270 kts | 120° |
| 2026-05-04 10:52 | 22.32166 | 114.07693 | 5163 ft | 276 kts | 143° |
| 2026-05-04 10:54 | 22.17970 | 114.08878 | 6971 ft | 292 kts | 163° |
| 2026-05-04 10:54 | 22.16233 | 114.09952 | 6981 ft | 288 kts | 137° |
| 2026-05-04 10:56 | 22.08688 | 114.23071 | 8619 ft | 300 kts | 123° |
| 2026-05-04 10:56 | 22.07607 | 114.25019 | 9210 ft | 304 kts | 123° |
| 2026-05-04 10:56 | 22.06519 | 114.26976 | 9810 ft | 308 kts | 123° |
| 2026-05-04 10:57 | 22.05407 | 114.28976 | 10340 ft | 315 kts | 123° |
| 2026-05-04 10:57 | 22.04246 | 114.31062 | 10621 ft | 331 kts | 124° |
| 2026-05-04 10:57 | 22.03040 | 114.33225 | 10907 ft | 348 kts | 124° |
| 2026-05-04 10:57 | 22.01757 | 114.35528 | 11192 ft | 364 kts | 124° |
| 2026-05-04 10:58 | 22.00427 | 114.37914 | 11485 ft | 379 kts | 124° |
| 2026-05-04 10:58 | 21.99047 | 114.40390 | 11787 ft | 394 kts | 123° |
| 2026-05-04 10:58 | 21.97605 | 114.42978 | 12232 ft | 404 kts | 124° |
| 2026-05-04 10:58 | 21.96165 | 114.45563 | 12847 ft | 409 kts | 124° |
| 2026-05-04 10:59 | 21.94697 | 114.48199 | 13524 ft | 412 kts | 124° |
| 2026-05-04 10:59 | 21.93207 | 114.50871 | 14177 ft | 416 kts | 124° |
| 2026-05-04 10:59 | 21.91724 | 114.53529 | 14778 ft | 421 kts | 124° |
| 2026-05-04 10:59 | 21.90189 | 114.56280 | 15376 ft | 427 kts | 123° |
| 2026-05-04 11:00 | 21.88663 | 114.59015 | 16035 ft | 429 kts | 123° |
| 2026-05-04 11:01 | 21.77569 | 114.78858 | 19953 ft | 456 kts | 123° |
| 2026-05-04 11:02 | 21.75928 | 114.81789 | 20503 ft | 458 kts | 124° |
| 2026-05-04 11:02 | 21.74254 | 114.84686 | 21000 ft | 460 kts | 128° |
| 2026-05-04 11:05 | 21.45925 | 115.24660 | 27326 ft | 501 kts | 130° |
| 2026-05-04 11:06 | 21.43786 | 115.27663 | 27753 ft | 505 kts | 130° |
| 2026-05-04 11:06 | 21.41658 | 115.30650 | 28128 ft | 509 kts | 131° |
| 2026-05-04 11:06 | 21.39506 | 115.33668 | 28510 ft | 512 kts | 131° |
| 2026-05-04 11:06 | 21.37327 | 115.36723 | 28938 ft | 515 kts | 130° |
| 2026-05-04 11:08 | 21.21987 | 115.58187 | 32573 ft | 515 kts | 131° |
| 2026-05-04 11:10 | 21.06670 | 115.79533 | 32993 ft | 515 kts | 131° |
| 2026-05-04 11:12 | 20.89136 | 116.03869 | 32990 ft | 517 kts | 131° |
| 2026-05-04 11:12 | 20.84461 | 116.09660 | 32987 ft | 507 kts | 142° |
| 2026-05-04 11:13 | 20.78764 | 116.14006 | 32993 ft | 502 kts | 152° |
| 2026-05-04 11:13 | 20.72869 | 116.18031 | 32995 ft | 501 kts | 152° |
| 2026-05-04 11:14 | 20.66981 | 116.22033 | 33002 ft | 500 kts | 152° |
| 2026-05-04 11:16 | 20.43377 | 116.38000 | 32995 ft | 500 kts | 152° |
| 2026-05-04 11:16 | 20.37450 | 116.41997 | 32994 ft | 500 kts | 152° |
| 2026-05-04 11:17 | 20.31560 | 116.45966 | 32986 ft | 500 kts | 152° |
| 2026-05-04 11:19 | 20.07963 | 116.61826 | 32983 ft | 502 kts | 151° |